Time;durP1;ratioP1;P1;durP2;ratioP2;P2;SDS_P1;SDS_P2;PMS_P1;PMS_P2;Temp;Humidity;BMP_temperature;BMP_pressure;BME280_temperature;BME280_humidity;BME280_pressure;Samples;Min_cycle;Max_cycle;Signal;HPM_P1;HPM_P2
2022/09/08 00:00:57;;;;;;;24.92;22.50;;;18.20;99.90;;;;;;4982433;28;20137;-62
2022/09/08 00:03:25;;;;;;;24.38;22.15;;;18.10;99.90;;;;;;4975026;28;20121;-63
2022/09/08 00:05:58;;;;;;;26.10;23.52;;;18.10;99.90;;;;;;4977956;28;20120;-63
2022/09/08 00:08:24;;;;;;;26.08;23.52;;;18.10;99.90;;;;;;5010199;28;20438;-63
2022/09/08 00:10:54;;;;;;;26.33;23.90;;;18.10;99.90;;;;;;4986179;28;20046;-62
2022/09/08 00:13:20;;;;;;;27.65;24.65;;;18.10;99.90;;;;;;4994173;28;20431;-63
2022/09/08 00:15:46;;;;;;;28.38;25.60;;;18.10;99.90;;;;;;4993976;28;20065;-63
2022/09/08 00:18:13;;;;;;;28.92;26.23;;;18.10;99.90;;;;;;4991888;28;20157;-63
2022/09/08 00:20:39;;;;;;;28.67;25.98;;;18.10;99.90;;;;;;5005605;28;20427;-63
2022/09/08 00:23:04;;;;;;;29.08;26.27;;;18.10;99.90;;;;;;4993413;28;20065;-63
2022/09/08 00:25:30;;;;;;;29.35;26.52;;;18.20;99.90;;;;;;4993979;28;20034;-63
2022/09/08 00:27:55;;;;;;;29.45;26.48;;;18.20;99.90;;;;;;5006586;28;20078;-63
2022/09/08 00:30:21;;;;;;;28.60;25.75;;;18.10;99.90;;;;;;4976264;28;20065;-63
2022/09/08 00:32:47;;;;;;;28.70;26.00;;;18.20;99.90;;;;;;4973770;28;20115;-63
2022/09/08 00:35:18;;;;;;;29.05;26.45;;;18.20;99.90;;;;;;4993384;28;20050;-63
2022/09/08 00:37:47;;;;;;;28.63;25.83;;;18.20;99.90;;;;;;4990056;28;20053;-63
2022/09/08 00:40:14;;;;;;;28.98;26.15;;;18.20;99.90;;;;;;4979583;28;20081;-63
2022/09/08 00:42:41;;;;;;;29.98;27.15;;;18.20;99.90;;;;;;4996701;28;20231;-63
2022/09/08 00:45:08;;;;;;;31.00;27.80;;;18.20;99.90;;;;;;4986684;28;20054;-63
2022/09/08 00:47:40;;;;;;;30.73;27.73;;;18.20;99.90;;;;;;4990168;28;20138;-65
2022/09/08 00:50:18;;;;;;;31.05;28.13;;;18.20;99.90;;;;;;4979766;28;20060;-63
2022/09/08 00:53:03;;;;;;;31.45;28.35;;;18.20;99.90;;;;;;5009562;28;20103;-63
2022/09/08 00:55:29;;;;;;;;;;;18.30;99.90;;;;;;4985029;28;20061;-63
2022/09/08 00:57:55;;;;;;;30.73;27.65;;;18.20;99.90;;;;;;4971297;28;19968;-63
2022/09/08 01:00:21;;;;;;;30.83;27.92;;;18.20;99.90;;;;;;4980874;28;20045;-63
2022/09/08 01:02:47;;;;;;;30.85;27.85;;;18.30;99.90;;;;;;4993151;28;20042;-63
2022/09/08 01:05:17;;;;;;;32.58;29.33;;;18.20;99.90;;;;;;5003844;28;20061;-63
2022/09/08 01:13:41;;;;;;;30.02;27.17;;;18.20;99.90;;;;;;4993260;28;20041;-64
2022/09/08 01:16:07;;;;;;;31.25;28.45;;;18.20;99.90;;;;;;4993237;28;20315;-63
2022/09/08 01:18:35;;;;;;;30.83;27.92;;;18.20;99.90;;;;;;4991692;28;20112;-63
2022/09/08 01:21:38;;;;;;;33.05;29.85;;;18.20;99.90;;;;;;4976799;28;20050;-64
2022/09/08 01:24:29;;;;;;;31.83;28.85;;;18.30;99.90;;;;;;5010293;28;20429;-63
2022/09/08 01:27:29;;;;;;;31.83;28.83;;;18.20;99.90;;;;;;4976545;28;20045;-63
2022/09/08 01:30:00;;;;;;;33.72;30.42;;;18.30;99.90;;;;;;4949236;28;20066;-63
2022/09/08 01:32:29;;;;;;;32.67;29.58;;;18.30;99.90;;;;;;4978760;28;20112;-63
2022/09/08 01:34:55;;;;;;;31.45;28.30;;;18.30;99.90;;;;;;4992181;28;20390;-63
2022/09/08 01:37:20;;;;;;;31.92;28.83;;;18.30;99.90;;;;;;4992554;28;20133;-63
2022/09/08 01:39:46;;;;;;;33.33;30.10;;;18.30;99.90;;;;;;4990690;28;20030;-63
2022/09/08 01:42:11;;;;;;;32.47;29.50;;;18.30;99.90;;;;;;5010306;28;20065;-63
2022/09/08 01:44:37;;;;;;;34.00;30.63;;;18.30;99.90;;;;;;4992843;28;20248;-63
2022/09/08 01:47:03;;;;;;;32.33;29.30;;;18.30;99.90;;;;;;5008720;28;20650;-64
2022/09/08 01:49:29;;;;;;;33.65;30.42;;;18.20;99.90;;;;;;4981745;28;20046;-63
2022/09/08 01:51:54;;;;;;;34.20;30.90;;;18.20;99.90;;;;;;5006327;28;20038;-63
2022/09/08 01:54:20;;;;;;;35.15;31.73;;;18.20;99.90;;;;;;4996651;28;20049;-63
2022/09/08 01:56:46;;;;;;;33.70;30.40;;;18.20;99.90;;;;;;4976875;28;20042;-63
2022/09/08 01:59:11;;;;;;;33.63;30.52;;;18.20;99.90;;;;;;4996581;28;20038;-63
2022/09/08 02:01:37;;;;;;;33.83;30.73;;;18.20;99.90;;;;;;5004683;28;20043;-63
2022/09/08 02:04:03;;;;;;;34.42;30.90;;;18.20;99.90;;;;;;4979551;28;20454;-63
2022/09/08 02:06:29;;;;;;;33.05;29.98;;;18.20;99.90;;;;;;4994627;28;20046;-63
2022/09/08 02:08:55;;;;;;;32.05;29.05;;;18.20;99.90;;;;;;5000087;28;20048;-63
2022/09/08 02:11:22;;;;;;;33.75;30.50;;;18.20;99.90;;;;;;4983121;28;20038;-63
2022/09/08 02:13:47;;;;;;;34.78;31.48;;;18.20;99.90;;;;;;4990901;28;20077;-63
2022/09/08 02:16:14;;;;;;;34.05;30.75;;;18.30;99.90;;;;;;4995963;28;20042;-63
2022/09/08 02:18:40;;;;;;;34.00;30.63;;;18.20;99.90;;;;;;4994611;28;20041;-63
2022/09/08 02:21:07;;;;;;;33.03;29.75;;;18.30;99.90;;;;;;4995888;28;20053;-63
2022/09/08 02:23:34;;;;;;;34.08;30.80;;;18.30;99.90;;;;;;4980136;28;20065;-63
2022/09/08 02:26:00;;;;;;;33.63;30.42;;;18.30;99.90;;;;;;4995316;28;20030;-63
2022/09/08 02:28:25;;;;;;;35.17;31.58;;;18.30;99.90;;;;;;5002289;28;20045;-63
2022/09/08 02:30:55;;;;;;;34.53;31.02;;;18.30;99.90;;;;;;4991236;28;20069;-63
2022/09/08 02:33:21;;;;;;;35.13;31.50;;;18.20;99.90;;;;;;4995926;28;20331;-63
2022/09/08 02:35:46;;;;;;;33.95;30.75;;;18.20;99.90;;;;;;4995261;28;20455;-63
2022/09/08 02:38:12;;;;;;;33.80;30.58;;;18.20;99.90;;;;;;4994818;28;20128;-63
2022/09/08 02:40:38;;;;;;;32.70;29.55;;;18.30;99.90;;;;;;4983639;28;20140;-63
2022/09/08 02:43:04;;;;;;;33.97;30.88;;;18.30;99.90;;;;;;4977778;28;20057;-63
2022/09/08 02:45:30;;;;;;;33.45;30.25;;;18.30;99.90;;;;;;4995439;28;20030;-63
2022/09/08 02:47:56;;;;;;;32.67;29.58;;;18.30;99.90;;;;;;4997197;28;20042;-63
2022/09/08 02:50:21;;;;;;;33.10;29.80;;;18.30;99.90;;;;;;4999769;28;20050;-63
2022/09/08 02:52:47;;;;;;;32.17;29.15;;;18.40;99.90;;;;;;4995332;28;20107;-63
2022/09/08 02:55:13;;;;;;;33.17;29.98;;;18.40;99.90;;;;;;5013001;28;20053;-63
2022/09/08 02:57:38;;;;;;;34.33;31.05;;;18.40;99.90;;;;;;4994959;28;20120;-63
2022/09/08 03:00:04;;;;;;;31.48;28.40;;;18.40;99.90;;;;;;4982736;28;20038;-63
2022/09/08 03:02:30;;;;;;;33.00;29.90;;;18.50;99.90;;;;;;5008198;28;20044;-63
2022/09/08 03:04:56;;;;;;;33.28;30.00;;;18.60;99.90;;;;;;4995061;28;20374;-63
2022/09/08 03:07:22;;;;;;;34.97;31.80;;;18.60;99.90;;;;;;5012236;28;20343;-64
2022/09/08 03:09:49;;;;;;;35.78;32.35;;;18.50;99.90;;;;;;4999354;28;20042;-63
2022/09/08 03:12:14;;;;;;;38.42;34.83;;;18.50;99.90;;;;;;4988535;28;20066;-63
2022/09/08 03:14:40;;;;;;;37.70;34.13;;;18.40;99.90;;;;;;4975682;28;20078;-63
2022/09/08 03:17:06;;;;;;;39.00;34.80;;;18.50;99.90;;;;;;4996811;28;20517;-64
2022/09/08 03:19:32;;;;;;;36.05;32.55;;;18.50;99.90;;;;;;4989663;28;20106;-63
2022/09/08 03:21:57;;;;;;;34.60;31.15;;;18.40;99.90;;;;;;4980621;28;20148;-63
2022/09/08 03:24:23;;;;;;;33.40;29.05;;;18.30;99.90;;;;;;5012329;28;20536;-63
2022/09/08 03:26:48;;;;;;;30.35;27.35;;;18.30;99.90;;;;;;5011866;28;20048;-63
2022/09/08 03:29:14;;;;;;;28.88;25.77;;;18.20;99.90;;;;;;4998677;28;20129;-63
2022/09/08 03:31:40;;;;;;;26.77;23.90;;;18.20;99.90;;;;;;5008122;28;20128;-63
2022/09/08 03:34:06;;;;;;;27.70;24.77;;;18.10;99.90;;;;;;5012628;28;20478;-64
2022/09/08 03:36:32;;;;;;;25.92;22.52;;;18.10;99.90;;;;;;4995120;28;20108;-65
2022/09/08 03:38:58;;;;;;;25.75;23.05;;;18.00;99.90;;;;;;5000196;28;20050;-63
2022/09/08 03:41:23;;;;;;;27.17;22.98;;;18.00;99.90;;;;;;4988753;28;20466;-64
2022/09/08 03:43:50;;;;;;;24.02;21.42;;;18.00;99.90;;;;;;4992319;28;20038;-64
2022/09/08 03:46:17;;;;;;;16.35;13.93;;;18.10;99.90;;;;;;4994045;28;20359;-64
2022/09/08 03:48:43;;;;;;;16.10;14.43;;;18.10;99.90;;;;;;5007649;28;20390;-64
2022/09/08 03:51:13;;;;;;;18.33;16.35;;;18.00;99.90;;;;;;5003784;28;20054;-64
2022/09/08 03:53:39;;;;;;;18.85;16.33;;;18.00;99.90;;;;;;5012320;28;20042;-63
2022/09/08 03:56:09;;;;;;;17.30;15.48;;;18.00;99.90;;;;;;5011951;28;20399;-64
2022/09/08 03:58:35;;;;;;;19.77;15.52;;;18.00;99.90;;;;;;5008827;28;20149;-65
2022/09/08 04:01:01;;;;;;;17.48;15.70;;;18.00;99.90;;;;;;5004339;28;20048;-64
2022/09/08 04:03:28;;;;;;;18.83;16.33;;;18.00;99.90;;;;;;4976623;28;20030;-64
2022/09/08 04:05:54;;;;;;;20.38;17.90;;;18.10;99.90;;;;;;5009576;28;20180;-64
2022/09/08 04:08:19;;;;;;;20.60;18.40;;;18.20;99.90;;;;;;4992807;28;20498;-64
2022/09/08 04:10:45;;;;;;;18.73;14.32;;;18.20;99.90;;;;;;4992523;28;20042;-64
2022/09/08 04:13:11;;;;;;;14.18;12.68;;;18.10;99.90;;;;;;5008217;28;20091;-64
2022/09/08 04:15:38;;;;;;;15.38;11.95;;;18.10;99.90;;;;;;5011753;28;20128;-64
2022/09/08 04:18:04;;;;;;;18.48;13.10;;;18.10;99.90;;;;;;5012381;28;20045;-63
2022/09/08 04:20:30;;;;;;;13.98;11.30;;;18.00;99.90;;;;;;5011984;28;20097;-64
2022/09/08 04:22:56;;;;;;;22.13;13.05;;;18.00;99.90;;;;;;5014263;28;20038;-64
2022/09/08 04:25:22;;;;;;;15.18;11.93;;;18.00;99.90;;;;;;4995902;28;20041;-64
2022/09/08 04:27:48;;;;;;;18.05;11.43;;;18.00;99.90;;;;;;4990195;28;20044;-63
2022/09/08 04:30:14;;;;;;;14.48;10.65;;;18.00;99.90;;;;;;4981930;28;20396;-63
2022/09/08 04:32:40;;;;;;;15.20;9.85;;;17.90;99.90;;;;;;5010508;28;20108;-63
2022/09/08 04:35:07;;;;;;;13.32;10.63;;;17.90;99.90;;;;;;5011351;28;20120;-63
2022/09/08 04:37:33;;;;;;;14.75;10.70;;;17.90;99.90;;;;;;5010954;28;20052;-64
2022/09/08 04:39:59;;;;;;;15.18;10.15;;;17.90;99.90;;;;;;4981587;28;20355;-65
2022/09/08 04:42:27;;;;;;;16.33;10.60;;;17.90;99.90;;;;;;5013847;28;20104;-63
2022/09/08 04:44:52;;;;;;;14.95;10.93;;;17.90;99.90;;;;;;4991075;28;20117;-63
2022/09/08 04:47:18;;;;;;;14.85;11.20;;;17.90;99.90;;;;;;4993498;28;20137;-63
2022/09/08 04:49:44;;;;;;;14.60;10.98;;;17.90;99.90;;;;;;4982607;28;20052;-63
2022/09/08 04:52:09;;;;;;;14.68;10.60;;;17.90;99.90;;;;;;4994924;28;20132;-64
2022/09/08 04:54:35;;;;;;;13.02;10.68;;;17.90;99.90;;;;;;5010920;28;20058;-64
2022/09/08 04:57:01;;;;;;;14.02;10.93;;;17.90;99.90;;;;;;5006701;28;20041;-65
2022/09/08 04:59:27;;;;;;;15.70;11.00;;;17.90;99.90;;;;;;5023350;28;20362;-64
2022/09/08 05:01:53;;;;;;;13.85;10.88;;;17.90;99.90;;;;;;5025379;28;20063;-64
2022/09/08 05:04:19;;;;;;;16.25;11.77;;;17.90;99.90;;;;;;5028800;28;20059;-63
2022/09/08 05:06:44;;;;;;;16.85;11.40;;;17.70;99.90;;;;;;5019248;28;20040;-64
2022/09/08 05:09:11;;;;;;;15.05;12.50;;;17.80;99.90;;;;;;5008429;28;20392;-63
2022/09/08 05:11:37;;;;;;;17.33;12.43;;;17.90;99.90;;;;;;5027280;28;20116;-65
2022/09/08 05:14:04;;;;;;;15.35;13.07;;;17.90;99.90;;;;;;5021850;28;20134;-64
2022/09/08 05:16:30;;;;;;;15.75;13.55;;;17.80;99.90;;;;;;5022244;28;20045;-64
2022/09/08 05:19:02;;;;;;;17.15;14.20;;;17.80;99.90;;;;;;4992939;28;20104;-64
2022/09/08 05:21:29;;;;;;;17.67;15.75;;;17.90;99.90;;;;;;5021751;28;20137;-64
2022/09/08 05:24:00;;;;;;;16.85;14.88;;;17.90;99.90;;;;;;4999650;28;20466;-64
2022/09/08 05:26:26;;;;;;;20.48;18.30;;;17.90;99.90;;;;;;5017069;28;20113;-63
2022/09/08 05:28:53;;;;;;;21.63;18.63;;;17.90;99.90;;;;;;5020826;28;20085;-59
2022/09/08 05:31:21;;;;;;;22.92;20.38;;;17.90;99.90;;;;;;5014999;28;20129;-60
2022/09/08 05:33:47;;;;;;;23.63;21.23;;;17.80;99.90;;;;;;5001813;28;20049;-59
2022/09/08 05:36:17;;;;;;;23.63;21.25;;;17.90;99.90;;;;;;5009536;28;20362;-60
2022/09/08 05:38:44;;;;;;;24.23;21.73;;;17.90;99.90;;;;;;4983568;28;20471;-59
2022/09/08 05:41:10;;;;;;;26.13;23.60;;;17.90;99.90;;;;;;5015850;28;20046;-59
2022/09/08 05:43:37;;;;;;;25.75;23.25;;;17.90;99.90;;;;;;5014201;28;20426;-59
2022/09/08 05:46:03;;;;;;;26.77;23.88;;;17.90;99.90;;;;;;5029080;28;20094;-59
2022/09/08 05:48:30;;;;;;;27.02;24.33;;;17.90;99.90;;;;;;5023095;28;20053;-59
2022/09/08 05:50:56;;;;;;;26.30;23.73;;;17.90;99.90;;;;;;5019554;28;20148;-60
2022/09/08 05:53:22;;;;;;;27.20;24.40;;;18.00;99.90;;;;;;5027388;28;20050;-60
2022/09/08 05:56:03;;;;;;;27.02;24.15;;;18.00;99.90;;;;;;5019616;28;20102;-59
2022/09/08 05:58:29;;;;;;;26.80;24.20;;;18.00;99.90;;;;;;5012393;28;20045;-59
2022/09/08 06:00:57;;;;;;;29.45;26.38;;;18.00;99.90;;;;;;5007041;28;20046;-59
2022/09/08 06:03:23;;;;;;;30.25;27.05;;;18.00;99.90;;;;;;5012438;28;20462;-60
2022/09/08 06:05:49;;;;;;;28.67;25.77;;;18.00;99.90;;;;;;5015741;28;20041;-59
2022/09/08 06:08:15;;;;;;;29.30;26.38;;;18.00;99.90;;;;;;5029936;28;20130;-60
2022/09/08 06:10:40;;;;;;;29.67;26.67;;;18.10;99.90;;;;;;5026838;28;20255;-60
2022/09/08 06:13:06;;;;;;;28.67;25.65;;;18.10;99.90;;;;;;5005766;28;20143;-60
2022/09/08 06:15:31;;;;;;;30.83;27.83;;;18.10;99.90;;;;;;5010983;28;20038;-60
2022/09/08 06:18:01;;;;;;;25.80;23.25;;;18.20;99.90;;;;;;5006610;28;20038;-61
2022/09/08 06:20:27;;;;;;;30.45;26.60;;;18.20;99.90;;;;;;5010491;28;20057;-61
2022/09/08 06:22:52;;;;;;;19.27;16.48;;;18.20;99.90;;;;;;5008525;28;20066;-61
2022/09/08 06:25:18;;;;;;;16.08;14.45;;;18.10;99.90;;;;;;5012653;28;20320;-63
2022/09/08 06:27:58;;;;;;;21.27;18.83;;;17.90;99.90;;;;;;5009765;28;20030;-63
2022/09/08 06:30:24;;;;;;;20.95;15.55;;;18.00;99.90;;;;;;5005079;28;20061;-63
2022/09/08 06:33:02;;;;;;;16.63;13.38;;;17.90;99.90;;;;;;5016290;28;20086;-63
2022/09/08 06:35:34;;;;;;;16.25;13.75;;;17.90;99.90;;;;;;5009181;28;20156;-64
2022/09/08 06:38:11;;;;;;;17.20;13.45;;;17.90;99.90;;;;;;5013046;28;20041;-64
2022/09/08 06:40:59;;;;;;;18.17;13.07;;;17.80;99.90;;;;;;5011325;28;20427;-64
2022/09/08 06:43:25;;;;;;;16.38;12.77;;;17.80;99.90;;;;;;5013149;28;20053;-63
2022/09/08 06:45:52;;;;;;;14.15;11.65;;;17.80;99.90;;;;;;5012626;28;20030;-63
2022/09/08 06:48:33;;;;;;;13.73;9.98;;;17.80;99.90;;;;;;5012507;28;20042;-63
2022/09/08 06:50:58;;;;;;;12.93;9.30;;;17.80;99.90;;;;;;4982819;28;20435;-65
2022/09/08 06:53:27;;;;;;;12.82;7.05;;;17.80;99.90;;;;;;5005967;28;20038;-64
2022/09/08 06:56:01;;;;;;;10.20;5.90;;;17.70;99.90;;;;;;5008858;28;20040;-64
2022/09/08 06:58:32;;;;;;;10.73;6.28;;;17.80;99.90;;;;;;5013698;28;20464;-64
2022/09/08 07:01:17;;;;;;;10.00;5.93;;;17.70;99.90;;;;;;5002291;28;20046;-65
2022/09/08 07:04:08;;;;;;;10.18;6.30;;;17.70;99.90;;;;;;5012201;28;20073;-64
2022/09/08 07:06:53;;;;;;;8.55;5.85;;;17.70;99.90;;;;;;5012308;28;20048;-64
2022/09/08 07:09:39;;;;;;;13.20;7.60;;;17.60;99.90;;;;;;5011173;28;20112;-64
2022/09/08 07:12:45;;;;;;;13.35;6.22;;;17.70;99.90;;;;;;5012915;28;20057;-64
2022/09/08 07:15:18;;;;;;;12.82;6.55;;;17.70;99.90;;;;;;5006106;28;20062;-65
2022/09/08 07:18:04;;;;;;;10.10;6.37;;;17.60;99.90;;;;;;5012911;28;20042;-65
2022/09/08 07:20:30;;;;;;;10.93;5.80;;;17.60;99.90;;;;;;4975709;28;20061;-64
2022/09/08 07:23:07;;;;;;;13.63;5.93;;;17.60;99.90;;;;;;5012633;28;20033;-65
2022/09/08 07:25:40;;;;;;;8.68;5.40;;;17.70;99.90;;;;;;4998985;28;20103;-64
2022/09/08 07:28:12;;;;;;;10.98;6.22;;;17.70;99.90;;;;;;5028216;28;20053;-63
2022/09/08 07:30:39;;;;;;;11.75;5.82;;;17.80;99.90;;;;;;5010086;28;20481;-64
2022/09/08 07:33:13;;;;;;;9.02;4.97;;;17.80;99.90;;;;;;5024668;28;20045;-63
2022/09/08 07:35:56;;;;;;;8.43;5.70;;;17.90;99.90;;;;;;5017047;28;20469;-63
2022/09/08 07:38:30;;;;;;;9.10;5.13;;;17.80;99.90;;;;;;5011014;28;20589;-63
2022/09/08 07:40:57;;;;;;;9.07;5.47;;;17.80;99.90;;;;;;5011657;28;20049;-63
2022/09/08 07:43:24;;;;;;;9.48;5.63;;;17.90;99.90;;;;;;5011863;28;20390;-64
2022/09/08 07:45:58;;;;;;;10.00;5.60;;;17.90;99.90;;;;;;4994201;28;20048;-64
2022/09/08 07:48:32;;;;;;;8.60;5.68;;;17.90;99.90;;;;;;5002903;28;20080;-64
2022/09/08 07:51:14;;;;;;;9.63;5.47;;;17.90;99.90;;;;;;5011861;28;20407;-64
2022/09/08 07:53:51;;;;;;;8.60;5.88;;;17.90;99.90;;;;;;5011971;28;20551;-64
2022/09/08 07:56:30;;;;;;;9.40;6.53;;;17.90;99.90;;;;;;5006819;28;20057;-64
2022/09/08 07:59:48;;;;;;;9.18;6.50;;;17.90;99.90;;;;;;5010604;28;20720;-63
2022/09/08 08:02:32;;;;;;;8.43;6.10;;;17.70;99.90;;;;;;4948023;28;20137;-64
2022/09/08 08:05:07;;;;;;;9.65;5.80;;;17.80;99.90;;;;;;5008220;28;20044;-64
2022/09/08 08:07:45;;;;;;;8.82;6.20;;;17.80;99.90;;;;;;5011702;28;20042;-64
2022/09/08 08:10:19;;;;;;;10.95;6.20;;;17.80;99.90;;;;;;4993105;28;20120;-64
2022/09/08 08:13:08;;;;;;;10.70;6.18;;;17.80;99.90;;;;;;5011233;28;20046;-64
2022/09/08 08:15:46;;;;;;;6.97;4.85;;;17.80;99.90;;;;;;4985062;28;20038;-64
2022/09/08 08:18:27;;;;;;;7.78;5.05;;;17.80;99.90;;;;;;4994148;28;20381;-64
2022/09/08 08:21:03;;;;;;;7.97;5.25;;;17.70;99.90;;;;;;5011600;28;20064;-65
2022/09/08 08:23:51;;;;;;;7.85;5.07;;;17.70;99.90;;;;;;5014177;28;20049;-64
2022/09/08 08:26:28;;;;;;;7.97;4.78;;;17.70;99.90;;;;;;5010794;28;20049;-64
2022/09/08 08:29:33;;;;;;;8.40;4.90;;;17.70;99.90;;;;;;5007065;28;20440;-65
2022/09/08 08:32:08;;;;;;;6.95;4.90;;;17.70;99.90;;;;;;5011758;28;20127;-64
2022/09/08 08:34:51;;;;;;;10.05;5.63;;;17.70;99.90;;;;;;5013474;28;20363;-62
2022/09/08 08:37:23;;;;;;;13.98;5.50;;;17.70;99.90;;;;;;5026918;28;20041;-62
2022/09/08 08:39:52;;;;;;;27.00;6.47;;;17.60;99.90;;;;;;5010608;28;20034;-62
2022/09/08 08:42:35;;;;;;;7.93;5.50;;;17.60;99.90;;;;;;4993488;28;20419;-62
2022/09/08 08:45:14;;;;;;;8.98;5.85;;;17.60;99.90;;;;;;4993020;28;20046;-63
2022/09/08 08:48:04;;;;;;;9.00;5.65;;;17.50;99.90;;;;;;5012361;28;20037;-63
2022/09/08 08:50:38;;;;;;;8.77;5.60;;;17.50;99.90;;;;;;5010081;28;20363;-64
2022/09/08 08:53:36;;;;;;;7.22;4.32;;;17.50;99.90;;;;;;4993430;28;20170;-63
2022/09/08 08:56:36;;;;;;;6.82;4.75;;;17.50;99.90;;;;;;5010571;28;20037;-64
2022/09/08 08:59:26;;;;;;;7.93;5.22;;;17.40;99.90;;;;;;5001330;28;20034;-63
2022/09/08 09:02:12;;;;;;;7.10;5.35;;;17.50;99.90;;;;;;4992061;28;20038;-62
2022/09/08 09:05:02;;;;;;;6.75;5.00;;;17.50;99.90;;;;;;5011087;28;20060;-63
2022/09/08 09:07:59;;;;;;;7.15;5.13;;;17.50;99.90;;;;;;5001570;28;20116;-62
2022/09/08 09:11:02;;;;;;;8.65;5.68;;;17.50;99.90;;;;;;5009662;28;20121;-62
2022/09/08 09:14:05;;;;;;;8.13;4.97;;;17.50;99.90;;;;;;5010494;28;20049;-63
2022/09/08 09:16:48;;;;;;;7.80;4.90;;;17.50;99.90;;;;;;5004377;28;20041;-63
2022/09/08 09:19:45;;;;;;;7.05;4.30;;;17.50;99.90;;;;;;5007452;28;20382;-63
2022/09/08 09:22:21;;;;;;;7.50;4.60;;;17.50;99.90;;;;;;4993066;28;20141;-63
2022/09/08 09:25:18;;;;;;;7.20;4.28;;;17.50;99.90;;;;;;5010261;28;20088;-63
2022/09/08 09:28:13;;;;;;;7.00;4.10;;;17.50;99.90;;;;;;5008440;28;20038;-63
2022/09/08 09:30:48;;;;;;;6.10;4.07;;;17.50;99.90;;;;;;5006777;28;20050;-65
2022/09/08 09:33:47;;;;;;;8.02;4.80;;;17.50;99.90;;;;;;4993264;28;20041;-63
2022/09/08 09:36:39;;;;;;;6.65;4.60;;;17.50;99.90;;;;;;5010524;28;20068;-63
2022/09/08 09:39:27;;;;;;;7.10;4.45;;;17.50;99.90;;;;;;5004942;28;20118;-63
2022/09/08 09:42:01;;;;;;;6.65;4.32;;;17.50;99.90;;;;;;5010067;28;20513;-63
2022/09/08 09:44:52;;;;;;;5.50;4.22;;;17.50;99.90;;;;;;5009360;28;20041;-62
2022/09/08 09:47:24;;;;;;;9.48;5.07;;;17.50;99.90;;;;;;5010335;28;20038;-63
2022/09/08 09:49:58;;;;;;;7.57;5.00;;;17.60;99.90;;;;;;5003600;28;20075;-63
2022/09/08 09:52:51;;;;;;;6.22;4.88;;;17.60;99.90;;;;;;5011041;28;20060;-63
2022/09/08 09:55:19;;;;;;;7.25;4.22;;;17.50;99.90;;;;;;5004979;28;20041;-63
2022/09/08 09:58:15;;;;;;;7.38;4.15;;;17.50;99.90;;;;;;5025532;28;20078;-63
2022/09/08 10:01:04;;;;;;;6.13;4.10;;;17.50;99.90;;;;;;4990754;28;20045;-63
2022/09/08 10:03:59;;;;;;;5.25;3.88;;;17.40;99.90;;;;;;4984529;28;20115;-63
2022/09/08 10:07:01;;;;;;;4.65;3.90;;;17.40;99.90;;;;;;4995434;28;20124;-63
2022/09/08 10:10:00;;;;;;;5.60;4.20;;;17.40;99.90;;;;;;5009032;28;20038;-63
2022/09/08 10:12:44;;;;;;;5.28;4.60;;;17.50;99.90;;;;;;5006568;28;20037;-63
2022/09/08 10:15:34;;;;;;;5.85;4.82;;;17.50;99.90;;;;;;5010193;28;20301;-63
2022/09/08 10:18:21;;;;;;;5.63;3.95;;;17.50;99.90;;;;;;5013763;28;20046;-63
2022/09/08 10:21:23;;;;;;;5.00;3.70;;;17.60;99.90;;;;;;5006388;28;20438;-63
2022/09/08 10:23:58;;;;;;;4.88;3.25;;;17.60;99.90;;;;;;5011022;28;20052;-63
2022/09/08 10:26:33;;;;;;;6.22;3.50;;;17.50;99.90;;;;;;4995449;28;20502;-64
2022/09/08 10:29:20;;;;;;;6.30;3.15;;;17.60;99.90;;;;;;5009323;28;20209;-63
2022/09/08 10:31:58;;;;;;;4.05;3.25;;;17.60;99.90;;;;;;5013544;28;20362;-63
2022/09/08 10:34:45;;;;;;;4.32;3.20;;;17.60;99.90;;;;;;5022612;28;20525;-65
2022/09/08 10:37:38;;;;;;;3.45;2.83;;;17.70;99.90;;;;;;5012956;28;20536;-64
2022/09/08 10:40:13;;;;;;;4.80;3.00;;;17.60;99.90;;;;;;5008227;28;20041;-63
2022/09/08 10:42:52;;;;;;;3.60;2.97;;;17.70;99.90;;;;;;5012838;28;20052;-63
2022/09/08 10:45:36;;;;;;;4.13;3.50;;;17.70;99.90;;;;;;5001686;28;20057;-63
2022/09/08 10:48:20;;;;;;;5.50;3.22;;;17.80;99.90;;;;;;5012883;28;20191;-63
2022/09/08 10:50:53;;;;;;;3.42;3.00;;;17.70;99.90;;;;;;5012644;28;20033;-63
2022/09/08 10:53:31;;;;;;;4.50;3.10;;;17.80;99.90;;;;;;5013174;28;20135;-63
2022/09/08 10:56:06;;;;;;;6.40;3.65;;;17.80;99.90;;;;;;5026354;28;20122;-63
2022/09/08 10:58:51;;;;;;;5.82;3.70;;;17.80;99.90;;;;;;5029188;28;20041;-64
2022/09/08 11:01:19;;;;;;;6.85;3.97;;;17.80;99.90;;;;;;5023849;28;20068;-63
2022/09/08 11:04:08;;;;;;;6.20;4.30;;;17.90;99.90;;;;;;5029115;28;20033;-63
2022/09/08 11:06:48;;;;;;;5.70;4.38;;;17.90;99.90;;;;;;5028191;28;20052;-63
2022/09/08 11:09:47;;;;;;;8.05;5.50;;;17.90;99.90;;;;;;5027329;28;20052;-63
2022/09/08 11:12:22;;;;;;;7.95;5.93;;;17.90;99.90;;;;;;4990036;28;20081;-63
2022/09/08 11:15:30;;;;;;;7.95;6.85;;;18.00;99.90;;;;;;5027877;28;20033;-62
2022/09/08 11:18:35;;;;;;;7.93;7.18;;;18.20;99.90;;;;;;4957090;28;20094;-63
2022/09/08 11:21:24;;;;;;;9.38;7.45;;;18.20;99.90;;;;;;5009870;28;20053;-63
2022/09/08 11:24:29;;;;;;;8.45;7.65;;;18.30;99.90;;;;;;5033227;28;20053;-63
2022/09/08 11:27:19;;;;;;;10.52;8.60;;;18.40;99.90;;;;;;4996646;28;20064;-63
2022/09/08 11:30:10;;;;;;;12.00;9.05;;;18.50;99.90;;;;;;5028653;28;20495;-63
2022/09/08 11:32:46;;;;;;;10.10;9.13;;;18.50;99.90;;;;;;5032206;28;20124;-63
2022/09/08 11:35:42;;;;;;;11.27;9.30;;;18.60;99.90;;;;;;5031644;28;20045;-63
2022/09/08 11:38:17;;;;;;;10.50;9.40;;;18.60;99.90;;;;;;5031942;28;20136;-62
2022/09/08 11:41:07;;;;;;;11.55;9.02;;;18.70;99.90;;;;;;5009728;28;20056;-63
2022/09/08 11:43:36;;;;;;;9.57;8.57;;;18.80;99.90;;;;;;5032172;28;20076;-62
2022/09/08 11:46:05;;;;;;;10.40;9.23;;;18.80;99.90;;;;;;5031512;28;20452;-63
2022/09/08 11:48:50;;;;;;;11.65;8.80;;;18.90;99.90;;;;;;5031847;28;20041;-64
2022/09/08 11:51:24;;;;;;;10.73;9.10;;;19.00;99.90;;;;;;5031842;28;20041;-63
2022/09/08 11:54:06;;;;;;;10.05;9.05;;;19.10;99.90;;;;;;5031904;28;20116;-63
2022/09/08 11:56:47;;;;;;;13.45;8.70;;;19.10;99.90;;;;;;5031327;28;20088;-63
2022/09/08 11:59:34;;;;;;;10.07;9.02;;;19.20;99.90;;;;;;4995204;28;20182;-62
2022/09/08 12:02:18;;;;;;;10.52;9.05;;;19.30;99.90;;;;;;5022933;28;20041;-63
2022/09/08 12:04:51;;;;;;;10.55;8.98;;;19.40;99.90;;;;;;5025765;28;20155;-63
2022/09/08 12:07:40;;;;;;;11.15;8.60;;;19.60;99.90;;;;;;5031008;28;20068;-63
2022/09/08 12:10:32;;;;;;;8.75;7.78;;;19.80;99.90;;;;;;5026959;28;20044;-62
2022/09/08 12:13:16;;;;;;;10.80;8.23;;;19.90;99.90;;;;;;5031161;28;20053;-63
2022/09/08 12:16:00;;;;;;;;;;;20.00;99.90;;;;;;5031123;28;20357;-63
2022/09/08 12:18:45;;;;;;;10.07;8.83;;;20.10;99.90;;;;;;5026748;28;19965;-63
2022/09/08 12:22:00;;;;;;;11.05;8.77;;;20.20;99.90;;;;;;5026203;28;20310;-63
2022/09/08 12:25:03;;;;;;;10.18;8.48;;;20.40;99.90;;;;;;5023846;28;20373;-63
2022/09/08 12:27:50;;;;;;;9.63;8.63;;;20.60;99.90;;;;;;5030727;28;20042;-63
2022/09/08 12:30:20;;;;;;;10.35;8.35;;;20.70;99.90;;;;;;5028913;28;20049;-64
2022/09/08 12:33:08;;;;;;;8.75;7.28;;;20.70;99.90;;;;;;5030758;28;20045;-64
2022/09/08 12:35:43;;;;;;;10.35;8.15;;;20.80;99.90;;;;;;5029591;28;20037;-64
2022/09/08 12:38:26;;;;;;;10.75;8.20;;;20.80;99.90;;;;;;5030523;28;20547;-64
2022/09/08 12:41:23;;;;;;;9.30;7.53;;;20.90;99.90;;;;;;5010762;28;20037;-63
2022/09/08 12:44:01;;;;;;;9.18;7.70;;;20.80;99.90;;;;;;5030930;28;20037;-63
2022/09/08 12:46:52;;;;;;;8.90;7.45;;;20.90;99.90;;;;;;5012276;28;20038;-65
2022/09/08 12:49:48;;;;;;;10.85;7.53;;;20.90;99.90;;;;;;5019109;28;20038;-64
2022/09/08 12:52:40;;;;;;;9.85;7.03;;;21.00;99.90;;;;;;5029978;28;20045;-65
2022/09/08 12:55:32;;;;;;;10.48;7.20;;;21.00;99.90;;;;;;5007566;28;20064;-63
2022/09/08 12:58:01;;;;;;;9.82;7.72;;;21.00;99.90;;;;;;5029814;28;20067;-63
2022/09/08 13:00:38;;;;;;;9.57;7.25;;;20.80;99.90;;;;;;5028098;28;20442;-63
2022/09/08 13:03:32;;;;;;;11.48;7.10;;;20.60;99.90;;;;;;5012946;28;20053;-64
2022/09/08 13:06:00;;;;;;;11.45;8.02;;;20.40;99.90;;;;;;5012010;28;20073;-63
2022/09/08 13:08:32;;;;;;;10.05;6.80;;;20.20;99.90;;;;;;5029377;28;20029;-62
2022/09/08 13:11:29;;;;;;;9.35;7.60;;;20.20;99.90;;;;;;5029138;28;20056;-62
2022/09/08 13:14:00;;;;;;;11.20;7.82;;;20.10;99.90;;;;;;5030161;28;20132;-63
2022/09/08 13:16:57;;;;;;;10.27;7.57;;;20.20;99.90;;;;;;5029383;28;20080;-63
2022/09/08 13:19:30;;;;;;;9.13;6.93;;;20.40;99.90;;;;;;5028932;28;20049;-63
2022/09/08 13:22:15;;;;;;;8.07;6.63;;;20.70;99.90;;;;;;5029138;28;20477;-63